Bulk Hong Kong — 3EEW4 — position and weather

sailwx.info

Track history (hours):
 
Tides and Currents Weather Stations Pressure Air Temp Water Temp Dewpoint Dewpoint Depression Visibility Wind Speed Wind Dir Waves Ship Positions

Bulk Hong Kong

Last reported at 2016-Jul-09 09:04 UTC. Time now 2016-Jul-30 16:50 UTC.
Position N 39°35' W 029°21'.
Warning: this ship's position is 21 days out of date.

Length 289 m; draft 9.7 m.

Type: Cargo ship. MMSI: 371828000.

Date/timePositionNaut miles runAvg speedWind from/ knotsBaromVisibWave heightAir tempDewpointWater temp
2016-Jul-09 09:04N 39°35' W 029°21'611.8
2016-Jul-09 08:33N 39°39' W 029°16'1111.1
2016-Jul-09 07:33N 39°44' W 029°03'1110.7
2016-Jul-09 06:33N 39°48' W 028°50'2110.5
2016-Jul-09 04:33N 39°57' W 028°26'1110.8
2016-Jul-09 03:31N 40°02' W 028°13'1010.5
2016-Jul-09 02:33N 40°06' W 028°01'1010.4
2016-Jul-09 01:34N 40°10' W 027°48'  
2016-Jul-04 23:14N 49°45' W 005°38'2313.5
2016-Jul-04 21:34N 49°48' W 005°04'2612.8
2016-Jul-04 19:33N 49°51' W 004°24'1211.9
2016-Jul-04 18:32N 49°53' W 004°05'1111.1
2016-Jul-04 17:33N 49°55' W 003°49'1111.4
2016-Jul-04 16:33N 49°56' W 003°31'1212.1
2016-Jul-04 15:33N 49°57' W 003°12'1413.7
2016-Jul-04 14:33N 49°60' W 002°51'9612.9
2016-Jul-04 07:10N 50°26' W 000°28'711.2
2016-Jul-04 06:33N 50°28' W 000°17'1212.4
2016-Jul-04 05:33N 50°31' E 000°02'1413.9
2016-Jul-04 04:33N 50°34' E 000°23'2214.5
2016-Jul-04 03:03N 50°45' E 000°53'813.8
2016-Jul-04 02:27N 50°49' E 001°04'1112.7
2016-Jul-04 01:33N 50°56' E 001°19'1111.0
2016-Jul-04 00:33N 51°04' E 001°30'10 9.7
2016-Jul-03 23:33N 51°11' E 001°42'1110.6
2016-Jul-03 22:33N 51°19' E 001°52'1212.5
2016-Jul-03 21:33N 51°29' E 002°03'1413.9
2016-Jul-03 20:33N 51°41' E 002°14'1514.6
2016-Jul-03 19:33N 51°52' E 002°31'1413.9
2016-Jul-03 18:32N 52°01' E 002°49'1212.4
2016-Jul-03 17:33N 52°03' E 003°09'1110.8
2016-Jul-03 16:33N 52°04' E 003°26'1010.1
2016-Jul-03 15:33N 52°04' E 003°42'9 9.0
2016-Jul-03 14:33N 52°03' E 003°57'8 7.7
2016-Jul-03 13:33N 51°59' E 004°07'7 6.8
2016-Jul-03 12:33N 51°55' E 004°15'2 1.5
2016-Jul-03 11:28N 51°53' E 004°17'0 0.1
2016-Jul-03 10:33N 51°53' E 004°16'0 0.0
2016-Jul-03 09:33N 51°53' E 004°16'0 0.0
2016-Jul-03 08:33N 51°53' E 004°16'0 0.0
2016-Jul-03 07:33N 51°53' E 004°16'0 0.0
2016-Jul-03 06:33N 51°53' E 004°16'0 0.0
2016-Jul-03 05:33N 51°53' E 004°16'0 0.0
2016-Jul-03 04:33N 51°53' E 004°16'0 0.0
2016-Jul-03 03:33N 51°53' E 004°16'0 0.0
2016-Jul-03 02:33N 51°53' E 004°16'0 0.0
2016-Jul-03 01:33N 51°53' E 004°16'0 0.0
2016-Jul-03 00:33N 51°53' E 004°16'0 0.0
2016-Jul-02 23:33N 51°53' E 004°16'0 0.0
2016-Jul-02 22:33N 51°53' E 004°16'0 0.0
2016-Jul-02 21:33N 51°53' E 004°16'0 0.0
2016-Jul-02 20:33N 51°53' E 004°16'0 0.0
2016-Jul-02 19:33N 51°53' E 004°16'0 0.0
2016-Jul-02 18:33N 51°53' E 004°16'0 0.0
2016-Jul-02 17:33N 51°53' E 004°16'0 0.0
2016-Jul-02 16:33N 51°53' E 004°16'0 0.0
2016-Jul-02 15:33N 51°53' E 004°16'0 0.0
2016-Jul-02 14:33N 51°53' E 004°16'0 0.0
2016-Jul-02 13:33N 51°53' E 004°16'0 0.0
2016-Jul-02 12:33N 51°53' E 004°16'0 0.0
2016-Jul-02 11:33N 51°53' E 004°16'0 0.0
2016-Jul-02 10:33N 51°53' E 004°16'0 0.0
2016-Jul-02 09:33N 51°53' E 004°16'0 0.0
2016-Jul-02 08:33N 51°53' E 004°16'0 0.0
2016-Jul-02 07:33N 51°53' E 004°16'0 0.0
2016-Jul-02 06:33N 51°53' E 004°16'0 0.0
2016-Jul-02 04:33N 51°53' E 004°16'0 0.0
2016-Jul-02 03:33N 51°53' E 004°16'0 0.0
2016-Jul-02 02:33N 51°53' E 004°16'0 0.0
2016-Jul-02 01:33N 51°53' E 004°16'0 0.0
2016-Jul-02 00:33N 51°53' E 004°16'0 0.0
2016-Jul-01 23:33N 51°53' E 004°16'0 0.0
2016-Jul-01 22:33N 51°53' E 004°16'0 0.0
2016-Jul-01 21:33N 51°53' E 004°16'0 0.0
2016-Jul-01 20:33N 51°53' E 004°16'0 0.0
2016-Jul-01 19:33N 51°53' E 004°16'0 0.0
2016-Jul-01 18:33N 51°53' E 004°16'0 0.0
2016-Jul-01 17:33N 51°53' E 004°16'0 0.0
2016-Jul-01 16:33N 51°53' E 004°16'0 0.0
2016-Jul-01 15:33N 51°53' E 004°16'0 0.0
2016-Jul-01 14:33N 51°53' E 004°16'0 0.0
2016-Jul-01 13:33N 51°53' E 004°16'0 0.0
2016-Jul-01 12:33N 51°53' E 004°16'0 0.0
2016-Jul-01 11:33N 51°53' E 004°16'0 0.0
2016-Jul-01 10:33N 51°53' E 004°16'0 0.0
2016-Jul-01 09:33N 51°53' E 004°16'0 0.0
2016-Jul-01 08:33N 51°53' E 004°17'1 0.9
2016-Jul-01 07:33N 51°54' E 004°17'6 6.4
2016-Jul-01 06:33N 51°58' E 004°09'8 8.3
2016-Jul-01 05:33N 51°60' E 003°56'2 2.3
2016-Jul-01 04:33N 51°58' E 003°53'3 2.5
2016-Jul-01 03:33N 52°01' E 003°55'7 7.1
2016-Jul-01 02:33N 51°58' E 004°05'2 1.9
2016-Jul-01 01:31N 51°56' E 004°03'0 0.0
2016-Jul-01 00:31N 51°56' E 004°03'0 0.0
2016-Jun-30 23:31N 51°56' E 004°03'0 0.0
2016-Jun-30 22:31N 51°56' E 004°03'0 0.0
2016-Jun-30 21:31N 51°56' E 004°03'0 0.0
2016-Jun-30 20:31N 51°56' E 004°03'0 0.0
2016-Jun-30 19:31N 51°56' E 004°03'0 0.0
2016-Jun-30 18:34N 51°56' E 004°03'0 0.0
2016-Jun-30 17:31N 51°56' E 004°03'0 0.0
2016-Jun-30 16:31N 51°56' E 004°03'0 0.0
2016-Jun-30 15:31N 51°56' E 004°03'0 0.0
2016-Jun-30 14:31N 51°56' E 004°03'0 0.0
2016-Jun-30 13:31N 51°56' E 004°03'0 0.0
2016-Jun-30 12:31N 51°56' E 004°03'0 0.0
2016-Jun-30 11:31N 51°56' E 004°03'0 0.0
2016-Jun-30 10:31N 51°56' E 004°03'0 0.0
2016-Jun-30 09:31N 51°56' E 004°03'0 0.0
2016-Jun-30 08:31N 51°56' E 004°03'0 0.0
2016-Jun-30 07:31N 51°56' E 004°03'0 0.0
2016-Jun-30 06:31N 51°56' E 004°03'0 0.0
2016-Jun-30 05:31N 51°56' E 004°03'0 0.0
2016-Jun-30 04:31N 51°56' E 004°03'0 0.0
2016-Jun-30 03:28N 51°56' E 004°03'0 0.0
2016-Jun-30 02:31N 51°56' E 004°03'0 0.0
2016-Jun-30 01:31N 51°56' E 004°03'0 0.0
2016-Jun-30 00:31N 51°56' E 004°03'0 0.0
2016-Jun-29 23:31N 51°56' E 004°03'0 0.0
2016-Jun-29 22:31N 51°56' E 004°03'0 0.0
2016-Jun-29 21:31N 51°56' E 004°03'0 0.0
2016-Jun-29 20:31N 51°56' E 004°03'0 0.0
2016-Jun-29 19:31N 51°56' E 004°03'0 0.0
2016-Jun-29 18:31N 51°56' E 004°03'0 0.0
2016-Jun-29 17:31N 51°56' E 004°03'0 0.0
2016-Jun-29 16:31N 51°56' E 004°03'0 0.0
2016-Jun-29 15:31N 51°56' E 004°03'0 0.0
2016-Jun-29 14:31N 51°56' E 004°03'0 0.0
2016-Jun-29 13:31N 51°56' E 004°03'0 0.0
2016-Jun-29 12:31N 51°56' E 004°03'0 0.0
2016-Jun-29 11:31N 51°56' E 004°03'0 0.0
2016-Jun-29 10:31N 51°56' E 004°03'0 0.0
2016-Jun-29 09:31N 51°56' E 004°03'  
Track history (hours):
 
Tides and Currents Weather Stations Pressure Air Temp Water Temp Dewpoint Dewpoint Depression Visibility Wind Speed Wind Dir Waves Ship Positions

Bulk Hong Kong

Last reported at 2016-Jul-09 09:04 UTC. Time now 2016-Jul-30 16:50 UTC.
Position N 39°35' W 029°21'.
Warning: this ship's position is 21 days out of date.

Length 289 m; draft 9.7 m.

Type: Cargo ship. MMSI: 371828000.

Date/timePositionNaut miles runAvg speedWind from/ knotsBaromVisibWave heightAir tempDewpointWater temp
2016-Jul-09 09:04N 39°35' W 029°21'611.8
2016-Jul-09 08:33N 39°39' W 029°16'1111.1
2016-Jul-09 07:33N 39°44' W 029°03'1110.7
2016-Jul-09 06:33N 39°48' W 028°50'2110.5
2016-Jul-09 04:33N 39°57' W 028°26'1110.8
2016-Jul-09 03:31N 40°02' W 028°13'1010.5
2016-Jul-09 02:33N 40°06' W 028°01'1010.4
2016-Jul-09 01:34N 40°10' W 027°48'  
2016-Jul-04 23:14N 49°45' W 005°38'2313.5
2016-Jul-04 21:34N 49°48' W 005°04'2612.8
2016-Jul-04 19:33N 49°51' W 004°24'1211.9
2016-Jul-04 18:32N 49°53' W 004°05'1111.1
2016-Jul-04 17:33N 49°55' W 003°49'1111.4
2016-Jul-04 16:33N 49°56' W 003°31'1212.1
2016-Jul-04 15:33N 49°57' W 003°12'1413.7
2016-Jul-04 14:33N 49°60' W 002°51'9612.9
2016-Jul-04 07:10N 50°26' W 000°28'711.2
2016-Jul-04 06:33N 50°28' W 000°17'1212.4
2016-Jul-04 05:33N 50°31' E 000°02'1413.9
2016-Jul-04 04:33N 50°34' E 000°23'2214.5
2016-Jul-04 03:03N 50°45' E 000°53'813.8
2016-Jul-04 02:27N 50°49' E 001°04'1112.7
2016-Jul-04 01:33N 50°56' E 001°19'1111.0
2016-Jul-04 00:33N 51°04' E 001°30'10 9.7
2016-Jul-03 23:33N 51°11' E 001°42'1110.6
2016-Jul-03 22:33N 51°19' E 001°52'1212.5
2016-Jul-03 21:33N 51°29' E 002°03'1413.9
2016-Jul-03 20:33N 51°41' E 002°14'1514.6
2016-Jul-03 19:33N 51°52' E 002°31'1413.9
2016-Jul-03 18:32N 52°01' E 002°49'1212.4
2016-Jul-03 17:33N 52°03' E 003°09'1110.8
2016-Jul-03 16:33N 52°04' E 003°26'1010.1
2016-Jul-03 15:33N 52°04' E 003°42'9 9.0
2016-Jul-03 14:33N 52°03' E 003°57'8 7.7
2016-Jul-03 13:33N 51°59' E 004°07'7 6.8
2016-Jul-03 12:33N 51°55' E 004°15'2 1.5
2016-Jul-03 11:28N 51°53' E 004°17'0 0.1
2016-Jul-03 10:33N 51°53' E 004°16'0 0.0
2016-Jul-03 09:33N 51°53' E 004°16'0 0.0
2016-Jul-03 08:33N 51°53' E 004°16'0 0.0
2016-Jul-03 07:33N 51°53' E 004°16'0 0.0
2016-Jul-03 06:33N 51°53' E 004°16'0 0.0
2016-Jul-03 05:33N 51°53' E 004°16'0 0.0
2016-Jul-03 04:33N 51°53' E 004°16'0 0.0
2016-Jul-03 03:33N 51°53' E 004°16'0 0.0
2016-Jul-03 02:33N 51°53' E 004°16'0 0.0
2016-Jul-03 01:33N 51°53' E 004°16'0 0.0
2016-Jul-03 00:33N 51°53' E 004°16'0 0.0
2016-Jul-02 23:33N 51°53' E 004°16'0 0.0
2016-Jul-02 22:33N 51°53' E 004°16'0 0.0
2016-Jul-02 21:33N 51°53' E 004°16'0 0.0
2016-Jul-02 20:33N 51°53' E 004°16'0 0.0
2016-Jul-02 19:33N 51°53' E 004°16'0 0.0
2016-Jul-02 18:33N 51°53' E 004°16'0 0.0
2016-Jul-02 17:33N 51°53' E 004°16'0 0.0
2016-Jul-02 16:33N 51°53' E 004°16'0 0.0
2016-Jul-02 15:33N 51°53' E 004°16'0 0.0
2016-Jul-02 14:33N 51°53' E 004°16'0 0.0
2016-Jul-02 13:33N 51°53' E 004°16'0 0.0
2016-Jul-02 12:33N 51°53' E 004°16'0 0.0
2016-Jul-02 11:33N 51°53' E 004°16'0 0.0
2016-Jul-02 10:33N 51°53' E 004°16'0 0.0
2016-Jul-02 09:33N 51°53' E 004°16'0 0.0
2016-Jul-02 08:33N 51°53' E 004°16'0 0.0
2016-Jul-02 07:33N 51°53' E 004°16'0 0.0
2016-Jul-02 06:33N 51°53' E 004°16'0 0.0
2016-Jul-02 04:33N 51°53' E 004°16'0 0.0
2016-Jul-02 03:33N 51°53' E 004°16'0 0.0
2016-Jul-02 02:33N 51°53' E 004°16'0 0.0
2016-Jul-02 01:33N 51°53' E 004°16'0 0.0
2016-Jul-02 00:33N 51°53' E 004°16'0 0.0
2016-Jul-01 23:33N 51°53' E 004°16'0 0.0
2016-Jul-01 22:33N 51°53' E 004°16'0 0.0
2016-Jul-01 21:33N 51°53' E 004°16'0 0.0
2016-Jul-01 20:33N 51°53' E 004°16'0 0.0
2016-Jul-01 19:33N 51°53' E 004°16'0 0.0
2016-Jul-01 18:33N 51°53' E 004°16'0 0.0
2016-Jul-01 17:33N 51°53' E 004°16'0 0.0
2016-Jul-01 16:33N 51°53' E 004°16'0 0.0
2016-Jul-01 15:33N 51°53' E 004°16'0 0.0
2016-Jul-01 14:33N 51°53' E 004°16'0 0.0
2016-Jul-01 13:33N 51°53' E 004°16'0 0.0
2016-Jul-01 12:33N 51°53' E 004°16'0 0.0
2016-Jul-01 11:33N 51°53' E 004°16'0 0.0
2016-Jul-01 10:33N 51°53' E 004°16'0 0.0
2016-Jul-01 09:33N 51°53' E 004°16'0 0.0
2016-Jul-01 08:33N 51°53' E 004°17'1 0.9
2016-Jul-01 07:33N 51°54' E 004°17'6 6.4
2016-Jul-01 06:33N 51°58' E 004°09'8 8.3
2016-Jul-01 05:33N 51°60' E 003°56'2 2.3
2016-Jul-01 04:33N 51°58' E 003°53'3 2.5
2016-Jul-01 03:33N 52°01' E 003°55'7 7.1
2016-Jul-01 02:33N 51°58' E 004°05'2 1.9
2016-Jul-01 01:31N 51°56' E 004°03'0 0.0
2016-Jul-01 00:31N 51°56' E 004°03'0 0.0
2016-Jun-30 23:31N 51°56' E 004°03'0 0.0
2016-Jun-30 22:31N 51°56' E 004°03'0 0.0
2016-Jun-30 21:31N 51°56' E 004°03'0 0.0
2016-Jun-30 20:31N 51°56' E 004°03'0 0.0
2016-Jun-30 19:31N 51°56' E 004°03'0 0.0
2016-Jun-30 18:34N 51°56' E 004°03'0 0.0
2016-Jun-30 17:31N 51°56' E 004°03'0 0.0
2016-Jun-30 16:31N 51°56' E 004°03'0 0.0
2016-Jun-30 15:31N 51°56' E 004°03'0 0.0
2016-Jun-30 14:31N 51°56' E 004°03'0 0.0
2016-Jun-30 13:31N 51°56' E 004°03'0 0.0
2016-Jun-30 12:31N 51°56' E 004°03'0 0.0
2016-Jun-30 11:31N 51°56' E 004°03'0 0.0
2016-Jun-30 10:31N 51°56' E 004°03'0 0.0
2016-Jun-30 09:31N 51°56' E 004°03'0 0.0
2016-Jun-30 08:31N 51°56' E 004°03'0 0.0
2016-Jun-30 07:31N 51°56' E 004°03'0 0.0
2016-Jun-30 06:31N 51°56' E 004°03'0 0.0
2016-Jun-30 05:31N 51°56' E 004°03'0 0.0
2016-Jun-30 04:31N 51°56' E 004°03'0 0.0
2016-Jun-30 03:28N 51°56' E 004°03'0 0.0
2016-Jun-30 02:31N 51°56' E 004°03'0 0.0
2016-Jun-30 01:31N 51°56' E 004°03'0 0.0
2016-Jun-30 00:31N 51°56' E 004°03'0 0.0
2016-Jun-29 23:31N 51°56' E 004°03'0 0.0
2016-Jun-29 22:31N 51°56' E 004°03'0 0.0
2016-Jun-29 21:31N 51°56' E 004°03'0 0.0
2016-Jun-29 20:31N 51°56' E 004°03'0 0.0
2016-Jun-29 19:31N 51°56' E 004°03'0 0.0
2016-Jun-29 18:31N 51°56' E 004°03'0 0.0
2016-Jun-29 17:31N 51°56' E 004°03'0 0.0
2016-Jun-29 16:31N 51°56' E 004°03'0 0.0
2016-Jun-29 15:31N 51°56' E 004°03'0 0.0
2016-Jun-29 14:31N 51°56' E 004°03'0 0.0
2016-Jun-29 13:31N 51°56' E 004°03'0 0.0
2016-Jun-29 12:31N 51°56' E 004°03'0 0.0
2016-Jun-29 11:31N 51°56' E 004°03'0 0.0
2016-Jun-29 10:31N 51°56' E 004°03'0 0.0
2016-Jun-29 09:31N 51°56' E 004°03'  

Dump ship's entire track history